Kitsissut

KL  EN  DA
ASIAQ
Weather Now GREENLAND SURVEY
Updated [WGT/WGST] Temperature [°C] Wind [m/s] Air pressure [hPa] Relative humidity [%] Precipitation [mm]
Present Wind chill Speed Max
30.11 17:00-19,9-30,96,2 ⇖8,2101371n/a
30.11 16:00-19,5-29,95,7 ⇖8,8101380n/a
30.11 15:00-19,5-29,45,1 ⇑7,7101377n/a
30.11 14:00-19,3-28,64,6 ⇖8,2101378n/a
30.11 13:00-19,8-30,76,2 ⇖9,3101378n/a
30.11 12:00-19,7-32,48,8 ⇖12,4101477n/a
30.11 11:00-19,8-31,57,2 ⇖10,8101379n/a
30.11 10:00-20,4-30,55,1 ⇑8,8101479n/a
30.11 09:00-19,5-31,88,2 ⇖11,3101476n/a
30.11 08:00-19,5-28,34,1 ⇖8,2101477n/a
30.11 07:00-19,6-28,54,1 ⇑7,2101478n/a
30.11 06:00-19,5-31,17,2 ⇖9,3101478n/a
30.11 05:00-19,9-28,84,1 ⇑6,7101379n/a
30.11 04:00-20,2-29,24,1 ⇑6,7101380n/a
30.11 03:00-20,4-30,55,1 ⇑7,2101379n/a
30.11 02:00-20,4-30,55,1 ⇑7,2101279n/a
30.11 01:00-20,2-32,07,2 ⇖9,8101279n/a
30.11 00:00-20,2-29,84,6 ⇖8,2101280n/a
29.11 23:00-20,3-31,86,7 ⇖8,8101179n/a
29.11 22:00-20,6-31,86,2 ⇑8,2101179n/a
29.11 21:00-21,0-32,76,7 ⇖8,8101179n/a
29.11 20:00-21,0-33,47,7 ⇑10,8101080n/a
29.11 19:00-21,0-32,76,7 ⇑9,3101079n/a
29.11 18:00-21,6-33,46,7 ⇖7,7101080n/a
29.11 17:00-22,1-32,65,1 ⇑6,7100981n/a
Position: (76.73333333,-73.12083333)

[Back]